sensor_id;sensor_type;location;lat;lon;timestamp;temperature;humidity
22290;DHT22;11313;50.116;8.424;2024-02-16T00:01:18;26.50;44.50
22290;DHT22;11313;50.116;8.424;2024-02-16T00:03:43;26.50;44.50
22290;DHT22;11313;50.116;8.424;2024-02-16T00:06:09;26.50;44.50
22290;DHT22;11313;50.116;8.424;2024-02-16T00:08:34;26.50;44.50
22290;DHT22;11313;50.116;8.424;2024-02-16T00:11:00;26.40;44.40
22290;DHT22;11313;50.116;8.424;2024-02-16T00:13:25;26.40;44.40
22290;DHT22;11313;50.116;8.424;2024-02-16T00:15:51;26.40;44.40
22290;DHT22;11313;50.116;8.424;2024-02-16T00:18:16;26.40;44.40
22290;DHT22;11313;50.116;8.424;2024-02-16T00:20:42;26.40;44.40
22290;DHT22;11313;50.116;8.424;2024-02-16T00:23:07;26.40;44.40
22290;DHT22;11313;50.116;8.424;2024-02-16T00:25:33;26.40;44.40
22290;DHT22;11313;50.116;8.424;2024-02-16T00:27:59;26.40;44.40
22290;DHT22;11313;50.116;8.424;2024-02-16T00:30:25;26.40;44.40
22290;DHT22;11313;50.116;8.424;2024-02-16T00:32:50;26.40;44.40
22290;DHT22;11313;50.116;8.424;2024-02-16T00:35:17;26.40;44.40
22290;DHT22;11313;50.116;8.424;2024-02-16T00:37:44;26.40;44.40
22290;DHT22;11313;50.116;8.424;2024-02-16T00:40:11;26.40;44.40
22290;DHT22;11313;50.116;8.424;2024-02-16T00:42:37;26.30;44.40
22290;DHT22;11313;50.116;8.424;2024-02-16T00:45:03;26.30;44.40
22290;DHT22;11313;50.116;8.424;2024-02-16T00:47:31;26.30;44.40
22290;DHT22;11313;50.116;8.424;2024-02-16T00:49:57;26.30;44.40
22290;DHT22;11313;50.116;8.424;2024-02-16T00:52:22;26.30;44.40
22290;DHT22;11313;50.116;8.424;2024-02-16T00:54:48;26.30;44.40
22290;DHT22;11313;50.116;8.424;2024-02-16T00:57:14;26.30;44.30
22290;DHT22;11313;50.116;8.424;2024-02-16T00:59:40;26.30;44.40
22290;DHT22;11313;50.116;8.424;2024-02-16T01:02:06;26.30;44.40
22290;DHT22;11313;50.116;8.424;2024-02-16T01:04:32;26.30;44.40
22290;DHT22;11313;50.116;8.424;2024-02-16T01:06:58;26.30;44.30
22290;DHT22;11313;50.116;8.424;2024-02-16T01:09:23;26.30;44.30
22290;DHT22;11313;50.116;8.424;2024-02-16T01:11:49;26.30;44.30
22290;DHT22;11313;50.116;8.424;2024-02-16T01:14:14;26.30;44.30
22290;DHT22;11313;50.116;8.424;2024-02-16T01:16:41;26.30;44.30
22290;DHT22;11313;50.116;8.424;2024-02-16T01:19:06;26.30;44.20
22290;DHT22;11313;50.116;8.424;2024-02-16T01:21:33;26.30;44.20
22290;DHT22;11313;50.116;8.424;2024-02-16T01:23:58;26.30;44.80
22290;DHT22;11313;50.116;8.424;2024-02-16T01:26:26;26.30;44.10
22290;DHT22;11313;50.116;8.424;2024-02-16T01:28:52;26.30;44.00
22290;DHT22;11313;50.116;8.424;2024-02-16T01:31:17;26.40;44.10
22290;DHT22;11313;50.116;8.424;2024-02-16T01:33:43;26.40;44.00
22290;DHT22;11313;50.116;8.424;2024-02-16T01:36:08;26.40;44.00
22290;DHT22;11313;50.116;8.424;2024-02-16T01:38:34;26.40;44.00
22290;DHT22;11313;50.116;8.424;2024-02-16T01:41:00;26.40;43.90
22290;DHT22;11313;50.116;8.424;2024-02-16T01:43:26;26.40;43.80
22290;DHT22;11313;50.116;8.424;2024-02-16T01:45:52;26.50;43.80
22290;DHT22;11313;50.116;8.424;2024-02-16T01:48:18;26.50;43.80
22290;DHT22;11313;50.116;8.424;2024-02-16T01:50:45;26.50;43.70
22290;DHT22;11313;50.116;8.424;2024-02-16T01:53:12;26.50;43.80
22290;DHT22;11313;50.116;8.424;2024-02-16T01:55:39;26.50;43.70
22290;DHT22;11313;50.116;8.424;2024-02-16T01:58:04;26.60;43.70
22290;DHT22;11313;50.116;8.424;2024-02-16T02:00:30;26.50;43.60
22290;DHT22;11313;50.116;8.424;2024-02-16T02:02:56;26.50;43.50
22290;DHT22;11313;50.116;8.424;2024-02-16T02:05:23;26.60;43.60
22290;DHT22;11313;50.116;8.424;2024-02-16T02:07:48;26.60;43.50
22290;DHT22;11313;50.116;8.424;2024-02-16T02:10:14;26.60;43.60
22290;DHT22;11313;50.116;8.424;2024-02-16T02:12:40;26.60;43.50
22290;DHT22;11313;50.116;8.424;2024-02-16T02:15:08;26.60;43.40
22290;DHT22;11313;50.116;8.424;2024-02-16T02:17:34;26.60;43.40
22290;DHT22;11313;50.116;8.424;2024-02-16T02:20:00;26.60;43.40
22290;DHT22;11313;50.116;8.424;2024-02-16T02:22:25;26.60;43.40
22290;DHT22;11313;50.116;8.424;2024-02-16T02:24:52;26.60;43.40
22290;DHT22;11313;50.116;8.424;2024-02-16T02:27:19;26.60;43.40
22290;DHT22;11313;50.116;8.424;2024-02-16T02:29:44;26.60;43.40
22290;DHT22;11313;50.116;8.424;2024-02-16T02:32:10;26.60;43.40
22290;DHT22;11313;50.116;8.424;2024-02-16T02:34:36;26.60;43.40
22290;DHT22;11313;50.116;8.424;2024-02-16T02:37:02;26.60;43.40
22290;DHT22;11313;50.116;8.424;2024-02-16T02:39:29;26.60;43.40
22290;DHT22;11313;50.116;8.424;2024-02-16T02:41:54;26.60;43.40
22290;DHT22;11313;50.116;8.424;2024-02-16T02:44:20;26.60;43.40
22290;DHT22;11313;50.116;8.424;2024-02-16T02:46:45;26.50;43.30
22290;DHT22;11313;50.116;8.424;2024-02-16T02:49:11;26.60;43.40
22290;DHT22;11313;50.116;8.424;2024-02-16T02:51:36;26.60;43.40
22290;DHT22;11313;50.116;8.424;2024-02-16T02:54:02;26.50;43.40
22290;DHT22;11313;50.116;8.424;2024-02-16T02:56:27;26.50;43.40
22290;DHT22;11313;50.116;8.424;2024-02-16T02:58:53;26.50;43.40
22290;DHT22;11313;50.116;8.424;2024-02-16T03:01:18;26.50;43.40
22290;DHT22;11313;50.116;8.424;2024-02-16T03:03:46;26.50;43.40
22290;DHT22;11313;50.116;8.424;2024-02-16T03:06:12;26.50;43.40
22290;DHT22;11313;50.116;8.424;2024-02-16T03:08:37;26.50;43.40
22290;DHT22;11313;50.116;8.424;2024-02-16T03:11:03;26.50;43.40
22290;DHT22;11313;50.116;8.424;2024-02-16T03:13:30;26.50;43.40
22290;DHT22;11313;50.116;8.424;2024-02-16T03:15:56;26.50;43.50
22290;DHT22;11313;50.116;8.424;2024-02-16T03:18:22;26.40;43.40
22290;DHT22;11313;50.116;8.424;2024-02-16T03:20:48;26.40;43.40
22290;DHT22;11313;50.116;8.424;2024-02-16T03:23:15;26.40;43.40
22290;DHT22;11313;50.116;8.424;2024-02-16T03:25:41;26.40;43.50
22290;DHT22;11313;50.116;8.424;2024-02-16T03:28:12;26.40;43.50
22290;DHT22;11313;50.116;8.424;2024-02-16T03:30:39;26.40;43.50
22290;DHT22;11313;50.116;8.424;2024-02-16T03:33:04;26.40;43.50
22290;DHT22;11313;50.116;8.424;2024-02-16T03:35:30;26.40;43.50
22290;DHT22;11313;50.116;8.424;2024-02-16T03:37:56;26.40;43.50
22290;DHT22;11313;50.116;8.424;2024-02-16T03:40:22;26.40;43.50
22290;DHT22;11313;50.116;8.424;2024-02-16T03:42:48;26.40;43.50
22290;DHT22;11313;50.116;8.424;2024-02-16T03:45:13;26.30;43.50
22290;DHT22;11313;50.116;8.424;2024-02-16T03:47:42;26.40;43.50
22290;DHT22;11313;50.116;8.424;2024-02-16T03:50:08;26.40;43.50
22290;DHT22;11313;50.116;8.424;2024-02-16T03:52:34;26.40;43.50
22290;DHT22;11313;50.116;8.424;2024-02-16T03:54:59;26.40;43.50
22290;DHT22;11313;50.116;8.424;2024-02-16T03:57:25;26.40;43.40
22290;DHT22;11313;50.116;8.424;2024-02-16T03:59:51;26.40;43.40
22290;DHT22;11313;50.116;8.424;2024-02-16T04:02:17;26.40;43.40
22290;DHT22;11313;50.116;8.424;2024-02-16T04:04:42;26.40;43.40
22290;DHT22;11313;50.116;8.424;2024-02-16T04:07:08;26.40;43.40
22290;DHT22;11313;50.116;8.424;2024-02-16T04:09:34;26.40;43.30
22290;DHT22;11313;50.116;8.424;2024-02-16T04:12:02;26.40;43.30
22290;DHT22;11313;50.116;8.424;2024-02-16T04:14:29;26.40;43.30
22290;DHT22;11313;50.116;8.424;2024-02-16T04:16:55;26.40;43.20
22290;DHT22;11313;50.116;8.424;2024-02-16T04:19:24;26.50;43.30
22290;DHT22;11313;50.116;8.424;2024-02-16T04:21:49;26.50;43.20
22290;DHT22;11313;50.116;8.424;2024-02-16T04:24:15;26.50;43.20
22290;DHT22;11313;50.116;8.424;2024-02-16T04:26:41;26.50;43.10
22290;DHT22;11313;50.116;8.424;2024-02-16T04:29:06;26.50;43.10
22290;DHT22;11313;50.116;8.424;2024-02-16T04:31:32;26.50;43.00
22290;DHT22;11313;50.116;8.424;2024-02-16T04:33:57;26.60;43.10
22290;DHT22;11313;50.116;8.424;2024-02-16T04:36:23;26.60;43.00
22290;DHT22;11313;50.116;8.424;2024-02-16T04:38:49;26.60;43.00
22290;DHT22;11313;50.116;8.424;2024-02-16T04:41:14;26.60;43.00
22290;DHT22;11313;50.116;8.424;2024-02-16T04:43:41;26.60;43.00
22290;DHT22;11313;50.116;8.424;2024-02-16T04:46:06;26.60;42.90
22290;DHT22;11313;50.116;8.424;2024-02-16T04:48:32;26.60;42.90
22290;DHT22;11313;50.116;8.424;2024-02-16T04:50:59;26.60;42.90
22290;DHT22;11313;50.116;8.424;2024-02-16T04:53:25;26.60;42.80
22290;DHT22;11313;50.116;8.424;2024-02-16T04:55:50;26.60;42.80
22290;DHT22;11313;50.116;8.424;2024-02-16T04:58:16;26.60;42.90
22290;DHT22;11313;50.116;8.424;2024-02-16T05:00:42;26.60;42.90
22290;DHT22;11313;50.116;8.424;2024-02-16T05:03:08;26.60;42.80
22290;DHT22;11313;50.116;8.424;2024-02-16T05:05:33;26.60;42.90
22290;DHT22;11313;50.116;8.424;2024-02-16T05:07:59;26.60;42.90
22290;DHT22;11313;50.116;8.424;2024-02-16T05:10:25;26.60;42.80
22290;DHT22;11313;50.116;8.424;2024-02-16T05:12:50;26.60;42.90
22290;DHT22;11313;50.116;8.424;2024-02-16T05:15:16;26.60;42.90
22290;DHT22;11313;50.116;8.424;2024-02-16T05:17:42;26.60;42.90
22290;DHT22;11313;50.116;8.424;2024-02-16T05:20:11;26.60;42.90
22290;DHT22;11313;50.116;8.424;2024-02-16T05:22:46;26.60;42.90
22290;DHT22;11313;50.116;8.424;2024-02-16T05:25:12;26.60;42.90
22290;DHT22;11313;50.116;8.424;2024-02-16T05:27:38;26.60;42.90
22290;DHT22;11313;50.116;8.424;2024-02-16T05:30:05;26.60;42.90
22290;DHT22;11313;50.116;8.424;2024-02-16T05:32:36;26.60;42.90
22290;DHT22;11313;50.116;8.424;2024-02-16T05:35:06;26.50;42.90
22290;DHT22;11313;50.116;8.424;2024-02-16T05:37:47;26.50;42.90
22290;DHT22;11313;50.116;8.424;2024-02-16T05:40:15;26.50;42.90
22290;DHT22;11313;50.116;8.424;2024-02-16T05:42:49;26.50;43.00
22290;DHT22;11313;50.116;8.424;2024-02-16T05:45:14;26.50;43.00
22290;DHT22;11313;50.116;8.424;2024-02-16T05:47:41;26.50;43.00
22290;DHT22;11313;50.116;8.424;2024-02-16T05:50:08;26.50;43.00
22290;DHT22;11313;50.116;8.424;2024-02-16T05:52:34;26.50;43.00
22290;DHT22;11313;50.116;8.424;2024-02-16T05:54:59;26.40;43.00
22290;DHT22;11313;50.116;8.424;2024-02-16T05:57:25;26.40;43.10
22290;DHT22;11313;50.116;8.424;2024-02-16T05:59:50;26.40;43.10
22290;DHT22;11313;50.116;8.424;2024-02-16T06:02:17;26.40;43.10
22290;DHT22;11313;50.116;8.424;2024-02-16T06:04:43;26.40;43.10
22290;DHT22;11313;50.116;8.424;2024-02-16T06:07:08;26.40;43.70
22290;DHT22;11313;50.116;8.424;2024-02-16T06:09:34;26.40;43.10
22290;DHT22;11313;50.116;8.424;2024-02-16T06:12:01;26.40;43.10
22290;DHT22;11313;50.116;8.424;2024-02-16T06:14:29;26.40;43.10
22290;DHT22;11313;50.116;8.424;2024-02-16T06:16:55;26.40;43.20
22290;DHT22;11313;50.116;8.424;2024-02-16T06:19:21;26.40;43.10
22290;DHT22;11313;50.116;8.424;2024-02-16T06:21:46;26.40;43.10
22290;DHT22;11313;50.116;8.424;2024-02-16T06:24:12;26.40;43.10
22290;DHT22;11313;50.116;8.424;2024-02-16T06:26:37;26.40;43.10
22290;DHT22;11313;50.116;8.424;2024-02-16T06:29:03;26.40;43.10
22290;DHT22;11313;50.116;8.424;2024-02-16T06:31:28;26.40;43.10
22290;DHT22;11313;50.116;8.424;2024-02-16T06:33:54;26.40;43.10
22290;DHT22;11313;50.116;8.424;2024-02-16T06:36:19;26.40;43.10
22290;DHT22;11313;50.116;8.424;2024-02-16T06:38:45;26.40;43.10
22290;DHT22;11313;50.116;8.424;2024-02-16T06:41:12;26.50;43.10
22290;DHT22;11313;50.116;8.424;2024-02-16T06:43:38;26.40;43.00
22290;DHT22;11313;50.116;8.424;2024-02-16T06:46:03;26.40;43.10
22290;DHT22;11313;50.116;8.424;2024-02-16T06:48:30;26.40;43.00
22290;DHT22;11313;50.116;8.424;2024-02-16T06:50:55;26.40;43.10
22290;DHT22;11313;50.116;8.424;2024-02-16T06:53:21;26.40;43.10
22290;DHT22;11313;50.116;8.424;2024-02-16T06:55:47;26.40;43.10
22290;DHT22;11313;50.116;8.424;2024-02-16T06:58:12;26.40;43.10
22290;DHT22;11313;50.116;8.424;2024-02-16T07:00:37;26.40;43.00
22290;DHT22;11313;50.116;8.424;2024-02-16T07:03:03;26.40;43.00
22290;DHT22;11313;50.116;8.424;2024-02-16T07:05:29;26.40;43.10
22290;DHT22;11313;50.116;8.424;2024-02-16T07:07:56;26.40;43.00
22290;DHT22;11313;50.116;8.424;2024-02-16T07:10:22;26.40;43.00
22290;DHT22;11313;50.116;8.424;2024-02-16T07:12:47;26.50;43.00
22290;DHT22;11313;50.116;8.424;2024-02-16T07:15:13;26.50;43.00
22290;DHT22;11313;50.116;8.424;2024-02-16T07:17:38;26.50;43.00
22290;DHT22;11313;50.116;8.424;2024-02-16T07:20:04;26.50;43.00
22290;DHT22;11313;50.116;8.424;2024-02-16T07:22:31;26.50;43.00
22290;DHT22;11313;50.116;8.424;2024-02-16T07:24:58;26.50;43.00
22290;DHT22;11313;50.116;8.424;2024-02-16T07:27:25;26.50;42.90
22290;DHT22;11313;50.116;8.424;2024-02-16T07:29:51;26.50;42.90
22290;DHT22;11313;50.116;8.424;2024-02-16T07:32:16;26.50;42.90
22290;DHT22;11313;50.116;8.424;2024-02-16T07:34:45;26.60;42.90
22290;DHT22;11313;50.116;8.424;2024-02-16T07:37:11;26.60;42.80
22290;DHT22;11313;50.116;8.424;2024-02-16T07:39:37;26.60;42.70
22290;DHT22;11313;50.116;8.424;2024-02-16T07:42:03;26.60;42.70
22290;DHT22;11313;50.116;8.424;2024-02-16T07:44:28;26.60;42.70
22290;DHT22;11313;50.116;8.424;2024-02-16T07:46:54;26.60;43.40
22290;DHT22;11313;50.116;8.424;2024-02-16T07:49:19;26.60;42.60
22290;DHT22;11313;50.116;8.424;2024-02-16T07:51:45;26.60;42.60
22290;DHT22;11313;50.116;8.424;2024-02-16T07:54:10;26.60;42.60
22290;DHT22;11313;50.116;8.424;2024-02-16T07:56:36;26.70;42.60
22290;DHT22;11313;50.116;8.424;2024-02-16T07:59:01;26.70;42.60
22290;DHT22;11313;50.116;8.424;2024-02-16T08:01:27;26.70;42.60
22290;DHT22;11313;50.116;8.424;2024-02-16T08:03:52;26.70;42.50
22290;DHT22;11313;50.116;8.424;2024-02-16T08:06:18;26.70;42.50
22290;DHT22;11313;50.116;8.424;2024-02-16T08:08:47;26.80;42.50
22290;DHT22;11313;50.116;8.424;2024-02-16T08:11:12;26.70;42.50
22290;DHT22;11313;50.116;8.424;2024-02-16T08:13:38;26.70;42.40
22290;DHT22;11313;50.116;8.424;2024-02-16T08:16:04;26.70;42.50
22290;DHT22;11313;50.116;8.424;2024-02-16T08:18:32;26.70;42.40
22290;DHT22;11313;50.116;8.424;2024-02-16T08:20:58;26.80;42.50
22290;DHT22;11313;50.116;8.424;2024-02-16T08:23:24;26.70;43.00
22290;DHT22;11313;50.116;8.424;2024-02-16T08:25:50;26.70;42.40
22290;DHT22;11313;50.116;8.424;2024-02-16T08:28:15;26.70;42.40
22290;DHT22;11313;50.116;8.424;2024-02-16T08:30:41;26.80;42.50
22290;DHT22;11313;50.116;8.424;2024-02-16T08:33:09;26.70;42.40
22290;DHT22;11313;50.116;8.424;2024-02-16T08:35:35;26.70;42.50
22290;DHT22;11313;50.116;8.424;2024-02-16T08:38:00;26.70;42.40
22290;DHT22;11313;50.116;8.424;2024-02-16T08:40:26;26.70;42.50
22290;DHT22;11313;50.116;8.424;2024-02-16T08:42:51;26.70;42.50
22290;DHT22;11313;50.116;8.424;2024-02-16T08:45:17;26.70;42.50
22290;DHT22;11313;50.116;8.424;2024-02-16T08:47:43;26.70;42.50
22290;DHT22;11313;50.116;8.424;2024-02-16T08:50:09;26.70;42.50
22290;DHT22;11313;50.116;8.424;2024-02-16T08:52:35;26.70;42.50
22290;DHT22;11313;50.116;8.424;2024-02-16T08:55:01;26.70;42.50
22290;DHT22;11313;50.116;8.424;2024-02-16T08:57:26;26.70;42.50
22290;DHT22;11313;50.116;8.424;2024-02-16T08:59:52;26.70;42.50
22290;DHT22;11313;50.116;8.424;2024-02-16T09:02:17;26.70;43.20
22290;DHT22;11313;50.116;8.424;2024-02-16T09:04:43;26.70;42.60
22290;DHT22;11313;50.116;8.424;2024-02-16T09:07:09;26.60;42.60
22290;DHT22;11313;50.116;8.424;2024-02-16T09:09:34;26.60;42.60
22290;DHT22;11313;50.116;8.424;2024-02-16T09:12:00;26.60;42.60
22290;DHT22;11313;50.116;8.424;2024-02-16T09:14:25;26.60;42.60
22290;DHT22;11313;50.116;8.424;2024-02-16T09:16:50;26.60;42.60
22290;DHT22;11313;50.116;8.424;2024-02-16T09:19:19;26.60;42.60
22290;DHT22;11313;50.116;8.424;2024-02-16T09:21:48;26.60;42.60
22290;DHT22;11313;50.116;8.424;2024-02-16T09:24:14;26.60;42.70
22290;DHT22;11313;50.116;8.424;2024-02-16T09:26:46;26.60;42.70
22290;DHT22;11313;50.116;8.424;2024-02-16T09:29:15;26.60;42.70
22290;DHT22;11313;50.116;8.424;2024-02-16T09:31:42;26.60;42.70
22290;DHT22;11313;50.116;8.424;2024-02-16T09:34:07;26.60;42.70
22290;DHT22;11313;50.116;8.424;2024-02-16T09:36:33;26.60;42.80
22290;DHT22;11313;50.116;8.424;2024-02-16T09:39:00;26.50;42.70
22290;DHT22;11313;50.116;8.424;2024-02-16T09:41:26;26.60;42.80
22290;DHT22;11313;50.116;8.424;2024-02-16T09:43:54;26.50;42.70
22290;DHT22;11313;50.116;8.424;2024-02-16T09:46:21;26.60;42.80
22290;DHT22;11313;50.116;8.424;2024-02-16T09:48:47;26.50;42.80
22290;DHT22;11313;50.116;8.424;2024-02-16T09:51:18;26.50;42.70
22290;DHT22;11313;50.116;8.424;2024-02-16T09:53:45;26.60;42.80
22290;DHT22;11313;50.116;8.424;2024-02-16T09:56:14;26.60;42.70
22290;DHT22;11313;50.116;8.424;2024-02-16T09:58:40;26.60;42.70
22290;DHT22;11313;50.116;8.424;2024-02-16T10:01:05;26.60;42.70
22290;DHT22;11313;50.116;8.424;2024-02-16T10:03:31;26.60;42.70
22290;DHT22;11313;50.116;8.424;2024-02-16T10:06:07;26.60;42.70
22290;DHT22;11313;50.116;8.424;2024-02-16T10:08:34;26.60;42.60
22290;DHT22;11313;50.116;8.424;2024-02-16T10:11:03;26.60;42.60
22290;DHT22;11313;50.116;8.424;2024-02-16T10:13:32;26.60;42.60
22290;DHT22;11313;50.116;8.424;2024-02-16T10:16:06;26.60;42.50
22290;DHT22;11313;50.116;8.424;2024-02-16T10:18:34;26.70;42.50
22290;DHT22;11313;50.116;8.424;2024-02-16T10:20:59;26.60;42.40
22290;DHT22;11313;50.116;8.424;2024-02-16T10:23:25;26.70;42.50
22290;DHT22;11313;50.116;8.424;2024-02-16T10:25:50;26.70;42.50
22290;DHT22;11313;50.116;8.424;2024-02-16T10:28:16;26.70;42.40
22290;DHT22;11313;50.116;8.424;2024-02-16T10:30:43;26.80;42.40
22290;DHT22;11313;50.116;8.424;2024-02-16T10:33:11;26.80;42.30
22290;DHT22;11313;50.116;8.424;2024-02-16T10:35:38;26.80;42.30
22290;DHT22;11313;50.116;8.424;2024-02-16T10:38:06;26.80;42.30
22290;DHT22;11313;50.116;8.424;2024-02-16T10:40:37;26.90;42.30
22290;DHT22;11313;50.116;8.424;2024-02-16T10:43:04;26.80;42.20
22290;DHT22;11313;50.116;8.424;2024-02-16T10:45:33;26.80;42.20
22290;DHT22;11313;50.116;8.424;2024-02-16T10:47:59;26.90;42.20
22290;DHT22;11313;50.116;8.424;2024-02-16T10:50:25;26.90;42.10
22290;DHT22;11313;50.116;8.424;2024-02-16T10:52:52;26.90;42.10
22290;DHT22;11313;50.116;8.424;2024-02-16T10:55:19;26.90;42.10
22290;DHT22;11313;50.116;8.424;2024-02-16T10:57:45;26.90;42.00
22290;DHT22;11313;50.116;8.424;2024-02-16T11:00:11;26.90;42.60
22290;DHT22;11313;50.116;8.424;2024-02-16T11:02:52;26.90;42.00
22290;DHT22;11313;50.116;8.424;2024-02-16T11:05:18;27.00;42.10
22290;DHT22;11313;50.116;8.424;2024-02-16T11:07:44;26.90;42.00
22290;DHT22;11313;50.116;8.424;2024-02-16T11:10:12;26.90;42.00
22290;DHT22;11313;50.116;8.424;2024-02-16T11:12:38;26.90;42.00
22290;DHT22;11313;50.116;8.424;2024-02-16T11:15:11;26.90;42.00
22290;DHT22;11313;50.116;8.424;2024-02-16T11:17:36;26.90;42.10
22290;DHT22;11313;50.116;8.424;2024-02-16T11:20:02;26.90;42.00
22290;DHT22;11313;50.116;8.424;2024-02-16T11:22:29;26.90;42.00
22290;DHT22;11313;50.116;8.424;2024-02-16T11:24:55;26.90;42.00
22290;DHT22;11313;50.116;8.424;2024-02-16T11:27:20;26.90;42.00
22290;DHT22;11313;50.116;8.424;2024-02-16T11:29:47;26.90;42.10
22290;DHT22;11313;50.116;8.424;2024-02-16T11:32:13;26.90;42.10
22290;DHT22;11313;50.116;8.424;2024-02-16T11:34:39;26.90;42.00
22290;DHT22;11313;50.116;8.424;2024-02-16T11:37:04;26.90;42.10
22290;DHT22;11313;50.116;8.424;2024-02-16T11:39:30;26.90;42.10
22290;DHT22;11313;50.116;8.424;2024-02-16T11:42:04;26.90;42.10
22290;DHT22;11313;50.116;8.424;2024-02-16T11:44:31;26.90;42.10
22290;DHT22;11313;50.116;8.424;2024-02-16T11:46:58;26.90;42.20
22290;DHT22;11313;50.116;8.424;2024-02-16T11:49:23;26.90;42.20
22290;DHT22;11313;50.116;8.424;2024-02-16T11:51:49;26.90;42.20
22290;DHT22;11313;50.116;8.424;2024-02-16T11:54:14;26.80;42.20
22290;DHT22;11313;50.116;8.424;2024-02-16T11:56:43;26.90;42.20
22290;DHT22;11313;50.116;8.424;2024-02-16T11:59:14;26.90;42.20
22290;DHT22;11313;50.116;8.424;2024-02-16T12:01:53;26.90;42.20
22290;DHT22;11313;50.116;8.424;2024-02-16T12:04:23;26.80;42.20
22290;DHT22;11313;50.116;8.424;2024-02-16T12:06:56;26.90;42.30
22290;DHT22;11313;50.116;8.424;2024-02-16T12:09:22;26.80;42.20
22290;DHT22;11313;50.116;8.424;2024-02-16T12:11:49;26.80;42.20
22290;DHT22;11313;50.116;8.424;2024-02-16T12:14:16;26.80;42.30
22290;DHT22;11313;50.116;8.424;2024-02-16T12:16:46;26.80;42.30
22290;DHT22;11313;50.116;8.424;2024-02-16T12:19:11;26.80;42.30
22290;DHT22;11313;50.116;8.424;2024-02-16T12:21:38;26.70;42.30
22290;DHT22;11313;50.116;8.424;2024-02-16T12:24:04;26.80;42.40
22290;DHT22;11313;50.116;8.424;2024-02-16T12:26:30;26.80;42.40
22290;DHT22;11313;50.116;8.424;2024-02-16T12:28:55;26.80;42.30
22290;DHT22;11313;50.116;8.424;2024-02-16T12:31:21;26.80;42.40
22290;DHT22;11313;50.116;8.424;2024-02-16T12:33:47;26.80;42.40
22290;DHT22;11313;50.116;8.424;2024-02-16T12:36:12;26.70;42.30
22290;DHT22;11313;50.116;8.424;2024-02-16T12:38:38;26.80;42.40
22290;DHT22;11313;50.116;8.424;2024-02-16T12:41:04;26.70;42.30
22290;DHT22;11313;50.116;8.424;2024-02-16T12:43:29;26.80;42.40
22290;DHT22;11313;50.116;8.424;2024-02-16T12:45:55;26.70;42.40
22290;DHT22;11313;50.116;8.424;2024-02-16T12:48:21;26.70;42.40
22290;DHT22;11313;50.116;8.424;2024-02-16T12:50:47;26.70;42.50
22290;DHT22;11313;50.116;8.424;2024-02-16T12:53:14;26.70;42.50
22290;DHT22;11313;50.116;8.424;2024-02-16T12:55:40;26.70;42.40
22290;DHT22;11313;50.116;8.424;2024-02-16T12:58:06;26.80;42.40
22290;DHT22;11313;50.116;8.424;2024-02-16T13:00:31;26.70;42.40
22290;DHT22;11313;50.116;8.424;2024-02-16T13:02:57;26.70;42.50
22290;DHT22;11313;50.116;8.424;2024-02-16T13:05:22;26.70;42.50
22290;DHT22;11313;50.116;8.424;2024-02-16T13:07:48;26.70;42.50
22290;DHT22;11313;50.116;8.424;2024-02-16T13:10:13;26.70;42.60
22290;DHT22;11313;50.116;8.424;2024-02-16T13:12:39;26.60;42.50
22290;DHT22;11313;50.116;8.424;2024-02-16T13:15:05;26.70;42.60
22290;DHT22;11313;50.116;8.424;2024-02-16T13:17:32;26.70;42.60
22290;DHT22;11313;50.116;8.424;2024-02-16T13:19:58;26.60;42.50
22290;DHT22;11313;50.116;8.424;2024-02-16T13:22:38;26.60;42.50
22290;DHT22;11313;50.116;8.424;2024-02-16T13:25:05;26.60;42.60
22290;DHT22;11313;50.116;8.424;2024-02-16T13:27:31;26.60;42.60
22290;DHT22;11313;50.116;8.424;2024-02-16T13:29:57;26.60;42.60
22290;DHT22;11313;50.116;8.424;2024-02-16T13:32:22;26.60;42.60
22290;DHT22;11313;50.116;8.424;2024-02-16T13:34:48;26.60;42.60
22290;DHT22;11313;50.116;8.424;2024-02-16T13:37:14;26.60;42.60
22290;DHT22;11313;50.116;8.424;2024-02-16T13:39:39;26.60;42.70
22290;DHT22;11313;50.116;8.424;2024-02-16T13:42:05;26.60;42.70
22290;DHT22;11313;50.116;8.424;2024-02-16T13:44:30;26.60;42.70
22290;DHT22;11313;50.116;8.424;2024-02-16T13:46:56;26.60;42.70
22290;DHT22;11313;50.116;8.424;2024-02-16T13:49:22;26.50;42.70
22290;DHT22;11313;50.116;8.424;2024-02-16T13:51:48;26.60;42.80
22290;DHT22;11313;50.116;8.424;2024-02-16T13:54:13;26.50;42.80
22290;DHT22;11313;50.116;8.424;2024-02-16T13:56:39;26.50;43.00
22290;DHT22;11313;50.116;8.424;2024-02-16T13:59:05;26.50;42.80
22290;DHT22;11313;50.116;8.424;2024-02-16T14:01:33;26.50;42.80
22290;DHT22;11313;50.116;8.424;2024-02-16T14:03:59;26.50;42.80
22290;DHT22;11313;50.116;8.424;2024-02-16T14:06:25;26.50;42.80
22290;DHT22;11313;50.116;8.424;2024-02-16T14:08:50;26.50;42.90
22290;DHT22;11313;50.116;8.424;2024-02-16T14:11:18;26.40;42.80
22290;DHT22;11313;50.116;8.424;2024-02-16T14:13:44;26.40;42.90
22290;DHT22;11313;50.116;8.424;2024-02-16T14:16:09;26.40;42.90
22290;DHT22;11313;50.116;8.424;2024-02-16T14:18:38;26.40;42.90
22290;DHT22;11313;50.116;8.424;2024-02-16T14:21:04;26.40;42.90
22290;DHT22;11313;50.116;8.424;2024-02-16T14:23:30;26.40;42.90
22290;DHT22;11313;50.116;8.424;2024-02-16T14:25:56;26.40;43.00
22290;DHT22;11313;50.116;8.424;2024-02-16T14:28:21;26.40;43.00
22290;DHT22;11313;50.116;8.424;2024-02-16T14:30:47;26.40;43.00
22290;DHT22;11313;50.116;8.424;2024-02-16T14:33:12;26.40;43.00
22290;DHT22;11313;50.116;8.424;2024-02-16T14:35:38;26.40;43.00
22290;DHT22;11313;50.116;8.424;2024-02-16T14:38:04;26.40;43.00
22290;DHT22;11313;50.116;8.424;2024-02-16T14:40:32;26.40;43.00
22290;DHT22;11313;50.116;8.424;2024-02-16T14:42:58;26.40;43.00
22290;DHT22;11313;50.116;8.424;2024-02-16T14:45:24;26.40;43.00
22290;DHT22;11313;50.116;8.424;2024-02-16T14:47:50;26.40;43.00
22290;DHT22;11313;50.116;8.424;2024-02-16T14:50:16;26.40;43.00
22290;DHT22;11313;50.116;8.424;2024-02-16T14:52:42;26.40;42.90
22290;DHT22;11313;50.116;8.424;2024-02-16T14:55:08;26.40;42.90
22290;DHT22;11313;50.116;8.424;2024-02-16T14:57:36;26.40;42.80
22290;DHT22;11313;50.116;8.424;2024-02-16T15:00:03;26.50;42.90
22290;DHT22;11313;50.116;8.424;2024-02-16T15:02:29;26.50;42.90
22290;DHT22;11313;50.116;8.424;2024-02-16T15:04:54;26.50;42.80
22290;DHT22;11313;50.116;8.424;2024-02-16T15:07:20;26.50;42.70
22290;DHT22;11313;50.116;8.424;2024-02-16T15:09:45;26.50;42.70
22290;DHT22;11313;50.116;8.424;2024-02-16T15:12:11;26.60;42.70
22290;DHT22;11313;50.116;8.424;2024-02-16T15:14:36;26.60;42.70
22290;DHT22;11313;50.116;8.424;2024-02-16T15:17:02;26.60;42.70
22290;DHT22;11313;50.116;8.424;2024-02-16T15:19:28;26.60;42.60
22290;DHT22;11313;50.116;8.424;2024-02-16T15:21:53;26.60;42.60
22290;DHT22;11313;50.116;8.424;2024-02-16T15:24:19;26.60;42.50